Sebastiao Laranjeiras, Brazil
Current Conditions -  °F | °C
As of 8:00 PM on Sunday 21 Dec 2014 (Local Time) from SBQV Reporting Station
Clear Clear  
Wind Chill: 75°   Ceiling: Unl
Heat Index: 75°   Visibility: 6mi
Dew Point: 68°   Wind: 6mph
Humidity: 78%   Direction: 50°NE
Pressure: 30.09"   Gusts: NA
Location:  14.57°S, 42.94°W
Report Text: SBQV 212300Z 05005KT CAVOK 24/20 Q1019
Loading
Personal Weather Stations






























Interactive Weather Map New forecast layout! Learn more

10-Day Weather Forecast

Advertisements
Track Severe Weather on mobile